createdAt,value
2022-08-05T00:00:17.624Z,26
2022-08-05T00:03:29.784Z,26
2022-08-05T00:06:41.940Z,25.9
2022-08-05T00:09:54.085Z,25.9
2022-08-05T00:13:06.234Z,25.9
2022-08-05T00:16:18.402Z,25.9
2022-08-05T00:19:30.549Z,25.8
2022-08-05T00:22:41.721Z,25.7
2022-08-05T00:25:53.873Z,25.7
2022-08-05T00:29:06.028Z,25.6
2022-08-05T00:32:18.174Z,25.5
2022-08-05T00:35:30.322Z,25.4
2022-08-05T00:38:42.469Z,25.4
2022-08-05T00:41:54.619Z,25.4
2022-08-05T00:45:05.801Z,25.3
2022-08-05T00:48:16.981Z,25.4
2022-08-05T00:51:28.143Z,25.4
2022-08-05T00:54:39.313Z,25.4
2022-08-05T00:57:50.501Z,25.4
2022-08-05T01:01:01.660Z,25.4
2022-08-05T01:04:13.831Z,25.5
2022-08-05T01:07:25.978Z,25.4
2022-08-05T01:10:38.122Z,25.4
2022-08-05T01:13:50.266Z,25.4
2022-08-05T01:17:02.421Z,25.4
2022-08-05T01:20:14.582Z,25.4
2022-08-05T01:23:26.728Z,25.3
2022-08-05T01:26:38.870Z,25.3
2022-08-05T01:29:51.036Z,25.1
2022-08-05T01:33:03.191Z,25.1
2022-08-05T01:36:15.334Z,25
2022-08-05T01:39:27.483Z,25
2022-08-05T01:42:38.650Z,25
2022-08-05T01:45:50.804Z,24.9
2022-08-05T01:49:02.964Z,24.9
2022-08-05T01:52:15.117Z,24.9
2022-08-05T01:55:27.270Z,24.9
2022-08-05T01:58:39.417Z,24.9
2022-08-05T02:01:51.559Z,24.9
2022-08-05T02:05:02.780Z,24.9
2022-08-05T02:08:13.943Z,24.9
2022-08-05T02:11:25.126Z,24.9
2022-08-05T02:14:36.298Z,24.9
2022-08-05T02:17:48.444Z,24.9
2022-08-05T02:21:00.592Z,24.9
2022-08-05T02:24:12.763Z,24.8
2022-08-05T02:27:24.900Z,24.8
2022-08-05T02:30:37.047Z,24.7
2022-08-05T02:33:49.211Z,24.7
2022-08-05T02:37:01.360Z,24.7
2022-08-05T02:40:13.503Z,24.6
2022-08-05T02:43:25.664Z,24.6
2022-08-05T02:46:37.807Z,24.6
2022-08-05T02:49:49.960Z,24.6
2022-08-05T02:53:02.125Z,24.6
2022-08-05T02:56:13.294Z,24.6
2022-08-05T02:59:25.426Z,24.6
2022-08-05T03:02:37.591Z,24.6
2022-08-05T03:05:49.748Z,24.6
2022-08-05T03:09:01.894Z,24.5
2022-08-05T03:12:14.033Z,24.5
2022-08-05T03:15:26.200Z,24.5
2022-08-05T03:18:37.365Z,24.5
2022-08-05T03:21:48.550Z,24.5
2022-08-05T03:24:59.721Z,24.5
2022-08-05T03:28:10.894Z,24.5
2022-08-05T03:31:23.038Z,24.5
2022-08-05T03:34:35.201Z,24.5
2022-08-05T03:37:47.351Z,24.6
2022-08-05T03:40:59.487Z,24.6
2022-08-05T03:44:11.658Z,24.6
2022-08-05T03:47:23.793Z,24.6
2022-08-05T03:50:35.956Z,24.6
2022-08-05T03:53:48.108Z,24.6
2022-08-05T03:57:00.257Z,24.6
2022-08-05T04:00:12.394Z,24.5
2022-08-05T04:03:24.550Z,24.5
2022-08-05T04:06:36.688Z,24.5
2022-08-05T04:09:47.870Z,24.5
2022-08-05T04:13:00.019Z,24.5
2022-08-05T04:16:12.167Z,24.5
2022-08-05T04:19:24.315Z,24.5
2022-08-05T04:22:36.457Z,24.5
2022-08-05T04:25:48.625Z,24.5
2022-08-05T04:29:00.767Z,24.5
2022-08-05T04:32:11.955Z,24.5
2022-08-05T04:35:23.121Z,24.5
2022-08-05T04:38:34.295Z,24.5
2022-08-05T04:41:45.455Z,24.6
2022-08-05T04:44:57.607Z,24.6
2022-08-05T04:48:09.754Z,24.6
2022-08-05T04:51:21.899Z,24.7
2022-08-05T04:54:34.062Z,24.7
2022-08-05T04:57:46.211Z,24.7
2022-08-05T05:00:58.369Z,24.8
2022-08-05T05:04:10.504Z,24.8
2022-08-05T05:07:22.673Z,24.8
2022-08-05T05:10:34.815Z,24.8
2022-08-05T05:13:46.974Z,24.8
2022-08-05T05:16:59.110Z,24.8
2022-08-05T05:20:11.270Z,24.7
2022-08-05T05:23:22.436Z,24.7
2022-08-05T05:26:34.579Z,24.8
2022-08-05T05:29:46.737Z,24.8
2022-08-05T05:32:58.898Z,24.8
2022-08-05T05:36:11.040Z,24.7
2022-08-05T05:39:23.182Z,24.6
2022-08-05T05:42:35.344Z,24.6
2022-08-05T05:45:46.514Z,24.4
2022-08-05T05:48:57.691Z,24.3
2022-08-05T05:52:08.860Z,24.3
2022-08-05T05:55:20.040Z,24.3
2022-08-05T05:58:32.177Z,24.3
2022-08-05T06:01:44.328Z,24.3
2022-08-05T06:04:56.479Z,24.2
2022-08-05T06:08:08.643Z,24.2
2022-08-05T06:11:20.794Z,24.1
2022-08-05T06:14:32.946Z,24.1
2022-08-05T06:17:45.093Z,24
2022-08-05T06:20:57.244Z,24
2022-08-05T06:24:09.393Z,24
2022-08-05T06:27:21.548Z,24
2022-08-05T06:30:33.697Z,24
2022-08-05T06:33:45.842Z,24.1
2022-08-05T06:36:57.988Z,24.1
2022-08-05T06:40:09.159Z,24.1
2022-08-05T06:43:21.299Z,24
2022-08-05T06:46:33.455Z,24
2022-08-05T06:49:45.619Z,24.1
2022-08-05T06:52:57.771Z,24.1
2022-08-05T06:56:09.915Z,24.2
2022-08-05T06:59:21.086Z,24.2
2022-08-05T07:02:32.248Z,24.3
2022-08-05T07:05:44.410Z,24.3
2022-08-05T07:08:56.561Z,24.3
2022-08-05T07:12:07.741Z,24.2
2022-08-05T07:15:18.902Z,24.2
2022-08-05T07:18:31.053Z,24.2
2022-08-05T07:21:43.207Z,24.1
2022-08-05T07:24:55.353Z,24.1
2022-08-05T07:28:07.520Z,24.1
2022-08-05T07:31:19.668Z,24.1
2022-08-05T07:34:31.820Z,24.1
2022-08-05T07:37:43.953Z,24.1
2022-08-05T07:40:56.117Z,24.1
2022-08-05T07:44:08.253Z,24.1
2022-08-05T07:47:20.420Z,24.1
2022-08-05T07:50:32.573Z,24.1
2022-08-05T07:53:44.718Z,24.1
2022-08-05T07:56:55.886Z,24.1
2022-08-05T08:00:08.040Z,24.1
2022-08-05T08:03:20.185Z,24.1
2022-08-05T08:06:32.347Z,24.1
2022-08-05T08:09:44.482Z,24.1
2022-08-05T08:12:56.631Z,24
2022-08-05T08:16:08.778Z,24
2022-08-05T08:19:19.959Z,24
2022-08-05T08:22:31.137Z,24.1
2022-08-05T08:25:43.279Z,24.1
2022-08-05T08:28:55.425Z,24.2
2022-08-05T08:32:07.591Z,24.2
2022-08-05T08:35:19.726Z,24.2
2022-08-05T08:38:31.880Z,24.2
2022-08-05T08:41:44.049Z,24.2
2022-08-05T08:44:56.179Z,24.2
2022-08-05T08:48:08.339Z,24.2
2022-08-05T08:51:20.497Z,24.1
2022-08-05T08:54:32.629Z,24
2022-08-05T08:57:44.796Z,24
2022-08-05T09:00:56.934Z,23.9
2022-08-05T09:04:08.102Z,24
2022-08-05T09:07:20.264Z,24
2022-08-05T09:10:32.415Z,24
2022-08-05T09:13:44.547Z,24
2022-08-05T09:16:56.702Z,24.1
2022-08-05T09:20:07.877Z,24.1
2022-08-05T09:23:20.028Z,24.2
2022-08-05T09:26:31.199Z,24.2
2022-08-05T09:29:42.369Z,24.2
2022-08-05T09:32:53.559Z,24.2
2022-08-05T09:36:04.715Z,24.2
2022-08-05T09:39:15.901Z,24.2
2022-08-05T09:42:27.063Z,24.3
2022-08-05T09:45:39.205Z,24.3
2022-08-05T09:48:51.362Z,24.2
2022-08-05T09:52:03.515Z,24.3
2022-08-05T09:55:15.666Z,24.2
2022-08-05T09:58:27.808Z,24
2022-08-05T10:01:39.964Z,23.9
2022-08-05T10:04:52.113Z,23.7
2022-08-05T10:08:04.269Z,23.7
2022-08-05T10:11:16.409Z,23.6
2022-08-05T10:14:28.564Z,23.7
2022-08-05T10:17:40.713Z,23.8
2022-08-05T10:20:52.880Z,23.9
2022-08-05T10:24:04.041Z,23.9
2022-08-05T10:27:16.196Z,24
2022-08-05T10:30:28.347Z,24
2022-08-05T10:33:40.498Z,24
2022-08-05T10:36:52.628Z,24
2022-08-05T10:40:04.783Z,24
2022-08-05T10:43:16.943Z,24
2022-08-05T10:46:28.112Z,24
2022-08-05T10:49:39.294Z,24.1
2022-08-05T10:52:50.470Z,24.1
2022-08-05T10:56:01.634Z,24.1
2022-08-05T10:59:13.769Z,24.2
2022-08-05T11:02:25.927Z,24.2
2022-08-05T11:05:38.077Z,24.2
2022-08-05T11:08:50.234Z,24.3
2022-08-05T11:12:02.386Z,24.4
2022-08-05T11:15:14.528Z,24.4
2022-08-05T11:18:26.678Z,24.4
2022-08-05T11:21:38.826Z,24.5
2022-08-05T11:24:50.980Z,24.6
2022-08-05T11:28:03.133Z,24.6
2022-08-05T11:31:15.287Z,24.7
2022-08-05T11:34:27.444Z,24.8
2022-08-05T11:37:38.599Z,24.9
2022-08-05T11:40:50.755Z,24.9
2022-08-05T11:44:02.901Z,25
2022-08-05T11:47:15.050Z,25
2022-08-05T11:50:27.212Z,25.1
2022-08-05T11:53:39.368Z,25.1
2022-08-05T11:56:51.504Z,25.2
2022-08-05T12:00:02.694Z,25.3
2022-08-05T12:03:13.864Z,25.4
2022-08-05T12:06:25.025Z,25.4
2022-08-05T12:09:36.202Z,25.5
2022-08-05T12:12:48.340Z,25.6
2022-08-05T12:16:00.503Z,25.7
2022-08-05T12:19:12.643Z,25.7
2022-08-05T12:22:24.807Z,25.8
2022-08-05T12:25:36.953Z,25.8
2022-08-05T12:28:49.090Z,25.9
2022-08-05T12:32:01.254Z,26
2022-08-05T12:35:13.390Z,26
2022-08-05T12:38:25.545Z,26.2
2022-08-05T12:41:37.691Z,26.2
2022-08-05T12:44:49.840Z,26.3
2022-08-05T12:48:01.999Z,26.4
2022-08-05T12:51:13.171Z,26.4
2022-08-05T12:54:25.324Z,26.5
2022-08-05T12:57:37.471Z,26.6
2022-08-05T13:00:49.613Z,26.6
2022-08-05T13:04:01.775Z,26.5
2022-08-05T13:07:13.926Z,26.6
2022-08-05T13:10:26.102Z,26.7
2022-08-05T13:13:37.285Z,26.7
2022-08-05T13:16:48.458Z,26.7
2022-08-05T13:19:59.623Z,26.9
2022-08-05T13:23:10.786Z,27
2022-08-05T13:26:22.941Z,27.1
2022-08-05T13:29:35.103Z,27.2
2022-08-05T13:32:47.245Z,27.3
2022-08-05T13:35:59.407Z,27.4
2022-08-05T13:39:11.555Z,27.5
2022-08-05T13:42:23.709Z,27.5
2022-08-05T13:45:35.867Z,27.4
2022-08-05T13:48:48.004Z,27.3
2022-08-05T13:52:00.164Z,27.2
2022-08-05T13:55:12.314Z,27.2
2022-08-05T13:58:24.456Z,27.1
2022-08-05T14:01:36.622Z,27.2
2022-08-05T14:04:47.776Z,27.4
2022-08-05T14:07:59.930Z,27.4
2022-08-05T14:11:12.088Z,27.4
2022-08-05T14:14:24.248Z,27.3
2022-08-05T14:17:36.400Z,27.2
2022-08-05T14:20:48.554Z,27.2
2022-08-05T14:24:00.688Z,27.1
2022-08-05T14:27:11.882Z,27.1
2022-08-05T14:30:23.048Z,27.1
2022-08-05T14:33:35.203Z,27.1
2022-08-05T14:36:46.368Z,27
2022-08-05T14:39:57.548Z,27
2022-08-05T14:43:09.682Z,26.9
2022-08-05T14:46:21.844Z,26.8
2022-08-05T14:49:33.997Z,26.9
2022-08-05T14:52:46.150Z,26.9
2022-08-05T14:55:58.306Z,26.8
2022-08-05T14:59:10.454Z,26.8
2022-08-05T15:02:22.594Z,26.7
2022-08-05T15:05:34.747Z,26.7
2022-08-05T15:08:46.901Z,26.6
2022-08-05T15:11:59.053Z,26.5
2022-08-05T15:15:11.204Z,26.4
2022-08-05T15:18:23.363Z,26.4
2022-08-05T15:21:34.531Z,26.3
2022-08-05T15:24:46.685Z,26.2
2022-08-05T15:27:58.832Z,26.1
2022-08-05T15:31:10.988Z,26.1
2022-08-05T15:34:23.139Z,26.1
2022-08-05T15:37:35.282Z,26
2022-08-05T15:40:47.440Z,25.9
2022-08-05T15:43:58.622Z,25.8
2022-08-05T15:47:09.778Z,25.8
2022-08-05T15:50:21.936Z,25.7
2022-08-05T15:53:34.091Z,25.7
2022-08-05T15:56:46.243Z,25.6
2022-08-05T15:59:58.399Z,25.5
2022-08-05T16:03:10.541Z,25.4
2022-08-05T16:06:22.691Z,25.3
2022-08-05T16:09:34.841Z,25.3
2022-08-05T16:12:46.993Z,25.3
2022-08-05T16:15:59.145Z,25.4
2022-08-05T16:19:11.302Z,25.4
2022-08-05T16:22:23.455Z,25.3
2022-08-05T16:25:35.614Z,25.3
2022-08-05T16:28:46.775Z,25
2022-08-05T16:31:58.937Z,24.8
2022-08-05T16:35:11.081Z,24.7
2022-08-05T16:38:23.236Z,24.6
2022-08-05T16:41:35.378Z,24.4
2022-08-05T16:44:47.527Z,24.4
2022-08-05T16:47:59.679Z,24.3
2022-08-05T16:51:10.856Z,24.3
2022-08-05T16:54:22.029Z,24.3
2022-08-05T16:57:33.207Z,24.2
2022-08-05T17:00:44.382Z,24
2022-08-05T17:03:55.550Z,24
2022-08-05T17:07:06.724Z,23.9
2022-08-05T17:10:17.910Z,23.7
2022-08-05T17:13:29.065Z,23.6
2022-08-05T17:16:41.219Z,23.4
2022-08-05T17:19:53.375Z,23.1
2022-08-05T17:23:05.521Z,22.8
2022-08-05T17:26:17.667Z,22.6
2022-08-05T17:29:29.825Z,22.5
2022-08-05T17:32:41.974Z,22.5
2022-08-05T17:35:54.124Z,22.5
2022-08-05T17:39:06.285Z,22.6
2022-08-05T17:42:18.437Z,22.4
2022-08-05T17:45:30.579Z,22.2
2022-08-05T17:48:42.746Z,22.1
2022-08-05T17:51:54.899Z,22.1
2022-08-05T17:55:06.065Z,22.2
2022-08-05T17:58:18.200Z,22.1
2022-08-05T18:01:30.360Z,22
2022-08-05T18:04:42.502Z,21.8
2022-08-05T18:07:54.664Z,21.7
2022-08-05T18:11:06.824Z,21.8
2022-08-05T18:14:18.975Z,21.7
2022-08-05T18:17:30.143Z,21.6
2022-08-05T18:20:41.314Z,21.6
2022-08-05T18:23:53.459Z,21.6
2022-08-05T18:27:05.621Z,21.5
2022-08-05T18:30:17.769Z,21.6
2022-08-05T18:33:29.914Z,21.6
2022-08-05T18:36:42.067Z,21.5
2022-08-05T18:39:54.222Z,21.4
2022-08-05T18:43:06.365Z,21.4
2022-08-05T18:46:18.527Z,21.2
2022-08-05T18:49:30.686Z,21.2
2022-08-05T18:52:42.820Z,21.2
2022-08-05T18:55:54.984Z,21.2
2022-08-05T18:59:07.133Z,21.2
2022-08-05T19:02:18.299Z,21.1
2022-08-05T19:05:30.444Z,21.1
2022-08-05T19:08:42.607Z,21.1
2022-08-05T19:11:54.757Z,21.1
2022-08-05T19:15:06.913Z,21.1
2022-08-05T19:18:19.051Z,21.1
2022-08-05T19:21:31.218Z,21
2022-08-05T19:24:42.000Z,21
2022-08-05T19:27:53.556Z,21
2022-08-05T19:31:04.738Z,21
2022-08-05T19:34:15.899Z,20.8
2022-08-05T19:37:28.052Z,20.7
2022-08-05T19:40:40.195Z,20.6
2022-08-05T19:43:52.361Z,20.6
2022-08-05T19:47:04.502Z,20.6
2022-08-05T19:50:16.670Z,20.7
2022-08-05T19:53:28.814Z,20.7
2022-08-05T19:56:40.962Z,20.7
2022-08-05T19:59:53.108Z,20.7
2022-08-05T20:03:04.282Z,20.6
2022-08-05T20:06:16.437Z,20.4
2022-08-05T20:09:28.599Z,20.4
2022-08-05T20:12:40.741Z,20.4
2022-08-05T20:15:52.903Z,20.4
2022-08-05T20:19:05.050Z,20.3
2022-08-05T20:22:17.192Z,20.4
2022-08-05T20:25:29.339Z,20.4
2022-08-05T20:28:41.506Z,20.5
2022-08-05T20:31:53.651Z,20.5
2022-08-05T20:35:05.795Z,20.5
2022-08-05T20:38:16.979Z,20.5
2022-08-05T20:41:28.158Z,20.5
2022-08-05T20:44:39.333Z,20.4
2022-08-05T20:47:50.493Z,20.4
2022-08-05T20:51:02.643Z,20.4
2022-08-05T20:54:14.793Z,20.3
2022-08-05T20:57:26.957Z,20.3
2022-08-05T21:00:39.111Z,20.2
2022-08-05T21:03:51.251Z,20.2
2022-08-05T21:07:03.409Z,20.2
2022-08-05T21:10:15.564Z,20.2
2022-08-05T21:13:27.703Z,20.2
2022-08-05T21:16:39.861Z,20.2
2022-08-05T21:19:52.013Z,20.2
2022-08-05T21:23:04.166Z,20.1
2022-08-05T21:26:16.322Z,20
2022-08-05T21:29:27.487Z,20
2022-08-05T21:32:39.634Z,20
2022-08-05T21:35:51.781Z,19.9
2022-08-05T21:39:03.949Z,20
2022-08-05T21:42:16.090Z,20
2022-08-05T21:45:28.238Z,20
2022-08-05T21:48:40.395Z,19.9
2022-08-05T21:51:51.582Z,19.8
2022-08-05T21:55:02.744Z,19.9
2022-08-05T21:58:13.912Z,19.8
2022-08-05T22:01:25.082Z,19.7
2022-08-05T22:04:36.260Z,19.6
2022-08-05T22:07:47.427Z,19.7
2022-08-05T22:10:59.593Z,19.8
2022-08-05T22:14:11.744Z,19.7
2022-08-05T22:17:23.888Z,19.7
2022-08-05T22:20:36.032Z,19.8
2022-08-05T22:23:48.185Z,19.7
2022-08-05T22:27:00.334Z,19.6
2022-08-05T22:30:12.495Z,19.4
2022-08-05T22:33:24.642Z,19.4
2022-08-05T22:36:36.797Z,19.4
2022-08-05T22:39:48.956Z,19.4
2022-08-05T22:43:01.103Z,19.4
2022-08-05T22:46:13.261Z,19.3
2022-08-05T22:49:24.413Z,19.4
2022-08-05T22:52:36.558Z,19.3
2022-08-05T22:55:48.707Z,19.3
2022-08-05T22:59:00.874Z,19.2
2022-08-05T23:02:13.025Z,19.2
2022-08-05T23:05:25.209Z,19.1
2022-08-05T23:08:37.355Z,19
2022-08-05T23:11:48.538Z,18.9
2022-08-05T23:14:59.695Z,18.9
2022-08-05T23:18:10.878Z,18.8
2022-08-05T23:21:22.030Z,18.9
2022-08-05T23:24:34.180Z,18.8
2022-08-05T23:27:46.342Z,18.7
2022-08-05T23:30:58.476Z,18.7
2022-08-05T23:34:10.629Z,18.6
2022-08-05T23:37:22.789Z,18.5
2022-08-05T23:40:34.939Z,18.4
2022-08-05T23:43:47.094Z,18.4
2022-08-05T23:46:59.238Z,18.4
2022-08-05T23:50:11.398Z,18.4
2022-08-05T23:53:23.531Z,18.3
2022-08-05T23:56:35.694Z,18.2
2022-08-05T23:59:47.853Z,18.1
